Time;durP1;ratioP1;P1;durP2;ratioP2;P2;SDS_P1;SDS_P2;PMS_P1;PMS_P2;Temp;Humidity;BMP_temperature;BMP_pressure;BME280_temperature;BME280_humidity;BME280_pressure;Samples;Min_cycle;Max_cycle;Signal;HPM_P1;HPM_P2
2022/11/20 00:00:49;;;;;;;;;;;23.40;63.20;;;;;;1599101;73;1470;-60
2022/11/20 00:02:51;;;;;;;;;;;23.30;63.30;;;;;;1593036;73;738;-60
2022/11/20 00:04:53;;;;;;;;;;;23.40;63.30;;;;;;1603062;73;688;-58
2022/11/20 00:06:55;;;;;;;;;;;23.30;63.30;;;;;;1606159;72;1937;-59
2022/11/20 00:08:57;;;;;;;;;;;23.40;63.40;;;;;;1586102;73;1125;-59
2022/11/20 00:11:05;;;;;;;;;;;23.30;63.40;;;;;;1602140;73;717;-58
2022/11/20 00:13:07;;;;;;;;;;;23.40;63.40;;;;;;1588568;73;673;-59
2022/11/20 00:15:10;;;;;;;;;;;23.30;63.50;;;;;;1597690;73;1477;-57
2022/11/20 00:17:12;;;;;;;;;;;23.30;63.60;;;;;;1589504;73;747;-59
2022/11/20 00:19:13;;;;;;;;;;;23.30;63.60;;;;;;1596266;73;1140;-57
2022/11/20 00:21:16;;;;;;;;;;;23.40;63.60;;;;;;1594208;73;684;-56
2022/11/20 00:23:18;;;;;;;;;;;23.30;63.70;;;;;;1601515;73;649;-59
2022/11/20 00:25:20;;;;;;;;;;;23.40;63.60;;;;;;1595196;73;708;-57
2022/11/20 00:27:22;;;;;;;;;;;23.40;63.50;;;;;;1592259;73;1933;-57
2022/11/20 00:29:23;;;;;;;;;;;23.40;63.50;;;;;;1598743;73;1554;-57
2022/11/20 00:31:25;;;;;;;;;;;23.40;63.50;;;;;;1604341;73;767;-56
2022/11/20 00:33:28;;;;;;;;;;;23.40;63.50;;;;;;1590154;73;620;-56
2022/11/20 00:35:30;;;;;;;;;;;23.40;63.50;;;;;;1609930;72;685;-57
2022/11/20 00:37:32;;;;;;;;;;;23.30;63.70;;;;;;1596995;72;1145;-56
2022/11/20 00:39:33;;;;;;;;;;;23.40;63.50;;;;;;1592865;73;736;-56
2022/11/20 00:41:35;;;;;;;;;;;23.40;63.40;;;;;;1591935;73;1457;-56
2022/11/20 00:43:37;;;;;;;;;;;23.40;63.40;;;;;;1591653;73;546;-56
2022/11/20 00:45:40;;;;;;;;;;;23.40;63.50;;;;;;1591041;73;704;-57
2022/11/20 00:47:42;;;;;;;;;;;23.40;63.50;;;;;;1591142;73;2077;-56
2022/11/20 00:49:44;;;;;;;;;;;23.30;63.50;;;;;;1596122;73;715;-57
2022/11/20 00:51:45;;;;;;;;;;;23.40;63.50;;;;;;1603156;72;657;-58
2022/11/20 00:53:47;;;;;;;;;;;23.40;63.50;;;;;;1594264;74;677;-57
2022/11/20 00:55:59;;;;;;;;;;;23.40;63.50;;;;;;1601809;73;1440;-56
2022/11/20 00:58:01;;;;;;;;;;;23.40;63.60;;;;;;1601403;72;1152;-58
2022/11/20 01:00:03;;;;;;;;;;;23.30;63.70;;;;;;1595250;73;657;-59
2022/11/20 01:02:05;;;;;;;;;;;23.40;63.90;;;;;;1596163;73;732;-58
2022/11/20 01:04:07;;;;;;;;;;;23.30;64.00;;;;;;1583964;73;630;-56
2022/11/20 01:06:12;;;;;;;;;;;23.30;64.00;;;;;;1594653;72;1928;-57
2022/11/20 01:08:14;;;;;;;;;;;23.30;64.00;;;;;;1604458;73;1151;-60
2022/11/20 01:10:17;;;;;;;;;;;23.30;64.00;;;;;;1593218;73;1379;-59
2022/11/20 01:12:19;;;;;;;;;;;23.30;64.10;;;;;;1606685;70;223449;-72
2022/11/20 01:14:20;;;;;;;;;;;23.30;64.30;;;;;;1586154;74;687;-71
2022/11/20 01:16:24;;;;;;;;;;;23.20;64.30;;;;;;1585533;73;753;-72
2022/11/20 01:18:26;;;;;;;;;;;23.20;64.50;;;;;;1582588;74;1692;-74
2022/11/20 01:20:28;;;;;;;;;;;23.20;64.60;;;;;;1584430;73;761;-74
2022/11/20 01:22:29;;;;;;;;;;;23.20;64.60;;;;;;1592798;74;1193;-73
2022/11/20 01:24:31;;;;;;;;;;;23.20;64.70;;;;;;1597912;72;1551;-72
2022/11/20 01:26:34;;;;;;;;;;;23.30;64.60;;;;;;1599016;72;1928;-72
2022/11/20 01:28:36;;;;;;;;;;;23.20;64.60;;;;;;1606037;73;704;-72
2022/11/20 01:30:38;;;;;;;;;;;23.20;64.60;;;;;;1603307;73;720;-72
2022/11/20 01:32:40;;;;;;;;;;;23.20;64.40;;;;;;1605763;72;1133;-72
2022/11/20 01:34:42;;;;;;;;;;;23.30;64.30;;;;;;1604425;72;648;-72
2022/11/20 01:36:43;;;;;;;;;;;23.30;64.20;;;;;;1614765;72;693;-73
2022/11/20 01:38:46;;;;;;;;;;;23.30;64.00;;;;;;1602497;72;1579;-72
2022/11/20 01:40:49;;;;;;;;;;;23.40;64.00;;;;;;1597242;73;714;-71
2022/11/20 01:45:33;;;;;;;;;;;23.30;64.20;;;;;;1606087;72;1646;-72
2022/11/20 01:47:37;;;;;;;;;;;23.30;64.30;;;;;;1602882;74;1930;-72
2022/11/20 01:49:39;;;;;;;;;;;23.30;64.30;;;;;;1606866;74;778;-71
2022/11/20 01:51:43;;;;;;;;;;;23.40;64.20;;;;;;1612787;72;686;-72
2022/11/20 01:53:45;;;;;;;;;;;23.30;64.10;;;;;;1593427;72;1842;-73
2022/11/20 01:55:48;;;;;;;;;;;23.30;64.10;;;;;;1592154;72;785;-72
2022/11/20 01:57:50;;;;;;;;;;;23.50;64.00;;;;;;1605827;74;1859;-72
2022/11/20 01:59:54;;;;;;;;;;;23.40;63.70;;;;;;1603158;74;673;-72
2022/11/20 02:01:55;;;;;;;;;;;23.40;63.60;;;;;;1603719;72;1134;-72
2022/11/20 02:03:57;;;;;;;;;;;23.40;63.50;;;;;;1598489;72;807;-73
2022/11/20 02:06:07;;;;;;;;;;;23.40;63.60;;;;;;1607891;72;1582;-73
2022/11/20 02:08:09;;;;;;;;;;;23.30;63.80;;;;;;1604331;72;1960;-73
2022/11/20 02:10:11;;;;;;;;;;;23.40;63.70;;;;;;1605038;72;750;-74
2022/11/20 02:13:42;;;;;;;;;;;23.40;63.70;;;;;;1602913;72;1128;-73
2022/11/20 02:14:17;;;;;;;;;;;23.40;63.70;;;;;;1594347;72;1430;-75
2022/11/20 02:16:25;;;;;;;;;;;23.40;63.60;;;;;;1606379;74;719;-72
2022/11/20 02:18:27;;;;;;;;;;;23.40;63.70;;;;;;1605464;74;759;-71
2022/11/20 02:20:29;;;;;;;;;;;23.30;63.80;;;;;;1601897;72;1567;-72
2022/11/20 02:22:32;;;;;;;;;;;23.30;64.00;;;;;;1592927;72;1149;-71
2022/11/20 02:24:34;;;;;;;;;;;23.30;64.00;;;;;;1599992;72;1765;-71
2022/11/20 02:26:41;;;;;;;;;;;23.30;63.90;;;;;;1605599;72;1942;-71
2022/11/20 02:28:42;;;;;;;;;;;23.30;63.90;;;;;;1604845;72;1005;-72
2022/11/20 02:30:44;;;;;;;;;;;23.30;64.10;;;;;;1602291;73;710;-73
2022/11/20 02:32:46;;;;;;;;;;;23.30;64.20;;;;;;1607450;72;1125;-71
2022/11/20 02:34:48;;;;;;;;;;;23.20;64.20;;;;;;1610911;72;1578;-73
2022/11/20 02:36:50;;;;;;;;;;;23.30;64.10;;;;;;1592906;72;707;-72
2022/11/20 02:38:52;;;;;;;;;;;23.30;64.20;;;;;;1602184;72;659;-72
2022/11/20 02:40:54;;;;;;;;;;;23.30;64.20;;;;;;1608530;74;632;-69
2022/11/20 02:42:56;;;;;;;;;;;23.30;64.30;;;;;;1604828;72;1141;-72
2022/11/20 02:44:57;;;;;;;;;;;23.30;64.20;;;;;;1609939;72;630;-69
2022/11/20 02:46:59;;;;;;;;;;;23.30;64.50;;;;;;1606959;73;1938;-72
2022/11/20 02:49:02;;;;;;;;;;;23.30;64.70;;;;;;1612921;72;1557;-72
2022/11/20 02:51:04;;;;;;;;;;;23.30;64.60;;;;;;1593874;72;729;-71
2022/11/20 02:53:06;;;;;;;;;;;23.20;64.70;;;;;;1604899;74;1120;-71
2022/11/20 02:55:08;;;;;;;;;;;23.20;64.70;;;;;;1604822;72;708;-71
2022/11/20 02:57:10;;;;;;;;;;;23.30;64.70;;;;;;1592684;72;700;-72
2022/11/20 02:59:12;;;;;;;;;;;23.30;64.50;;;;;;1606532;72;670;-71
2022/11/20 03:01:14;;;;;;;;;;;23.30;64.30;;;;;;1599388;72;609;-71
2022/11/20 03:03:16;;;;;;;;;;;23.40;64.30;;;;;;1596926;72;1621;-71
2022/11/20 03:05:17;;;;;;;;;;;23.40;64.20;;;;;;1592464;72;754;-71
2022/11/20 03:07:19;;;;;;;;;;;23.50;64.20;;;;;;1606603;72;1929;-68
2022/11/20 03:09:21;;;;;;;;;;;23.40;64.00;;;;;;1599253;73;813;-71
2022/11/20 03:11:23;;;;;;;;;;;23.50;64.10;;;;;;1601365;74;750;-73
2022/11/20 03:13:25;;;;;;;;;;;23.40;63.90;;;;;;1596166;72;1091;-67
2022/11/20 03:15:27;;;;;;;;;;;23.50;64.10;;;;;;1602025;72;655;-71
2022/11/20 03:17:30;;;;;;;;;;;23.40;64.10;;;;;;1607343;72;1604;-71
2022/11/20 03:19:32;;;;;;;;;;;23.30;64.20;;;;;;1600846;72;647;-70
2022/11/20 03:21:34;;;;;;;;;;;23.40;64.20;;;;;;1606255;72;666;-73
2022/11/20 03:23:36;;;;;;;;;;;23.30;64.30;;;;;;1606149;73;1120;-71
2022/11/20 03:25:38;;;;;;;;;;;23.30;64.60;;;;;;1607346;72;681;-72
2022/11/20 03:27:40;;;;;;;;;;;23.20;65.10;;;;;;1599349;73;1922;-72
2022/11/20 03:29:42;;;;;;;;;;;23.10;65.40;;;;;;1600252;74;737;-73
2022/11/20 03:31:44;;;;;;;;;;;23.10;65.80;;;;;;1598901;72;1505;-73
2022/11/20 03:33:45;;;;;;;;;;;23.10;66.00;;;;;;1604401;72;1101;-72
2022/11/20 03:35:47;;;;;;;;;;;23.00;66.00;;;;;;1606631;72;605;-72
2022/11/20 03:37:49;;;;;;;;;;;23.00;66.20;;;;;;1602254;72;725;-73
2022/11/20 03:39:51;;;;;;;;;;;23.00;66.30;;;;;;1605003;73;689;-74
2022/11/20 03:41:53;;;;;;;;;;;22.90;66.70;;;;;;1605032;72;1129;-70
2022/11/20 03:43:56;;;;;;;;;;;22.90;66.70;;;;;;1592044;72;693;-72
2022/11/20 03:45:57;;;;;;;;;;;22.90;67.00;;;;;;1607847;72;1453;-72
2022/11/20 03:47:59;;;;;;;;;;;22.80;67.10;;;;;;1596821;72;1934;-71
2022/11/20 03:50:01;;;;;;;;;;;22.70;67.60;;;;;;1604476;72;653;-71
2022/11/20 03:52:03;;;;;;;;;;;22.80;67.70;;;;;;1600934;72;1117;-71
2022/11/20 03:54:06;;;;;;;;;;;22.70;67.80;;;;;;1601643;72;677;-72
2022/11/20 03:56:08;;;;;;;;;;;22.80;68.00;;;;;;1606657;72;620;-71
2022/11/20 03:58:10;;;;;;;;;;;22.80;68.00;;;;;;1594504;72;702;-68
2022/11/20 04:00:13;;;;;;;;;;;22.70;68.10;;;;;;1605366;73;1733;-70
2022/11/20 04:02:15;;;;;;;;;;;22.70;68.10;;;;;;1594748;72;1164;-71
2022/11/20 04:04:16;;;;;;;;;;;22.70;68.20;;;;;;1604349;73;643;-71
2022/11/20 04:06:20;;;;;;;;;;;22.70;68.30;;;;;;1606565;72;701;-70
2022/11/20 04:08:21;;;;;;;;;;;22.70;68.20;;;;;;1599660;72;1930;-73
2022/11/20 04:10:23;;;;;;;;;;;22.70;68.30;;;;;;1600112;72;653;-73
2022/11/20 04:12:25;;;;;;;;;;;22.70;68.30;;;;;;1593245;74;1597;-71
2022/11/20 04:14:27;;;;;;;;;;;22.70;68.40;;;;;;1593744;74;762;-71
2022/11/20 04:16:33;;;;;;;;;;;22.70;68.50;;;;;;1592939;72;758;-73
2022/11/20 04:18:34;;;;;;;;;;;22.70;68.50;;;;;;1593838;72;672;-72
2022/11/20 04:20:36;;;;;;;;;;;22.70;68.50;;;;;;1606405;72;751;-72
2022/11/20 04:22:38;;;;;;;;;;;22.70;68.50;;;;;;1606153;72;1149;-72
2022/11/20 04:24:40;;;;;;;;;;;22.70;68.60;;;;;;1606544;73;671;-71
2022/11/20 04:26:42;;;;;;;;;;;22.70;68.60;;;;;;1604268;72;1514;-72
2022/11/20 04:28:44;;;;;;;;;;;22.70;68.60;;;;;;1597073;72;1938;-72
2022/11/20 04:30:46;;;;;;;;;;;22.80;68.90;;;;;;1601378;72;659;-71
2022/11/20 04:32:47;;;;;;;;;;;22.70;69.10;;;;;;1600867;72;1171;-72
2022/11/20 04:34:49;;;;;;;;;;;22.70;69.20;;;;;;1605100;72;687;-71
2022/11/20 04:36:51;;;;;;;;;;;22.80;69.20;;;;;;1605905;72;750;-71
2022/11/20 04:38:53;;;;;;;;;;;22.70;69.20;;;;;;1600138;72;713;-70
2022/11/20 04:40:59;;;;;;;;;;;22.70;69.10;;;;;;1597209;72;1579;-72
2022/11/20 04:43:00;;;;;;;;;;;22.80;69.00;;;;;;1598178;72;1106;-71
2022/11/20 04:45:02;;;;;;;;;;;22.80;69.00;;;;;;1607923;72;691;-71
2022/11/20 04:47:04;;;;;;;;;;;22.70;68.90;;;;;;1604840;74;777;-71
2022/11/20 04:49:06;;;;;;;;;;;22.70;68.90;;;;;;1609065;72;1944;-72
2022/11/20 04:51:08;;;;;;;;;;;22.80;68.90;;;;;;1601489;74;936;-72
2022/11/20 04:53:10;;;;;;;;;;;22.70;68.80;;;;;;1605024;72;1125;-71
2022/11/20 04:55:12;;;;;;;;;;;22.80;68.70;;;;;;1604831;72;1317;-71
2022/11/20 04:57:14;;;;;;;;;;;22.70;68.70;;;;;;1602318;72;668;-71
2022/11/20 04:59:16;;;;;;;;;;;22.70;68.70;;;;;;1591368;72;717;-72
2022/11/20 05:01:18;;;;;;;;;;;22.70;68.60;;;;;;1600073;73;647;-73
2022/11/20 05:03:20;;;;;;;;;;;22.70;68.70;;;;;;1597556;72;1168;-73
2022/11/20 05:05:22;;;;;;;;;;;22.80;68.70;;;;;;1607594;73;805;-73
2022/11/20 05:07:24;;;;;;;;;;;22.70;68.70;;;;;;1606678;72;751;-73
2022/11/20 05:09:26;;;;;;;;;;;22.80;68.80;;;;;;1592777;73;1929;-70
2022/11/20 05:11:31;;;;;;;;;;;22.70;68.90;;;;;;1606687;72;662;-72
2022/11/20 05:13:33;;;;;;;;;;;22.70;68.90;;;;;;1595364;72;1129;-73
2022/11/20 05:15:34;;;;;;;;;;;22.70;68.80;;;;;;1601423;73;786;-73
2022/11/20 05:17:36;;;;;;;;;;;22.80;68.70;;;;;;1606469;72;669;-73
2022/11/20 05:19:38;;;;;;;;;;;22.70;68.70;;;;;;1609798;72;668;-72
2022/11/20 05:21:40;;;;;;;;;;;22.70;68.70;;;;;;1604296;74;742;-72
2022/11/20 05:23:42;;;;;;;;;;;22.70;68.70;;;;;;1609440;72;1338;-72
2022/11/20 05:25:44;;;;;;;;;;;22.70;68.60;;;;;;1602016;72;578;-71
2022/11/20 05:27:46;;;;;;;;;;;22.70;68.70;;;;;;1585790;72;1934;-73
2022/11/20 05:29:48;;;;;;;;;;;22.70;68.60;;;;;;1601654;72;924;-72
2022/11/20 05:31:49;;;;;;;;;;;22.70;68.60;;;;;;1595072;73;692;-68
2022/11/20 05:33:51;;;;;;;;;;;22.70;68.60;;;;;;1616881;72;1182;-72
2022/11/20 05:35:53;;;;;;;;;;;22.70;68.60;;;;;;1599881;72;662;-71
2022/11/20 05:37:55;;;;;;;;;;;22.80;68.80;;;;;;1596645;72;1578;-73
2022/11/20 05:39:57;;;;;;;;;;;22.70;69.10;;;;;;1588539;72;701;-73
2022/11/20 05:44:19;;;;;;;;;;;22.70;69.20;;;;;;1604618;72;1643;-73
2022/11/20 05:46:21;;;;;;;;;;;22.80;69.10;;;;;;1596740;72;639;-74
2022/11/20 05:48:23;;;;;;;;;;;22.70;69.00;;;;;;1601559;73;1928;-72
2022/11/20 05:50:25;;;;;;;;;;;22.70;69.00;;;;;;1598796;73;684;-73
2022/11/20 05:52:30;;;;;;;;;;;22.70;68.90;;;;;;1591844;73;1527;-72
2022/11/20 05:54:32;;;;;;;;;;;22.70;69.00;;;;;;1606495;73;703;-73
2022/11/20 05:56:34;;;;;;;;;;;22.80;69.00;;;;;;1604678;72;664;-71
2022/11/20 05:58:36;;;;;;;;;;;22.70;68.80;;;;;;1604933;74;658;-71
2022/11/20 06:00:37;;;;;;;;;;;22.80;68.80;;;;;;1604909;73;811;-72
2022/11/20 06:02:39;;;;;;;;;;;22.70;68.80;;;;;;1587971;74;1182;-71
2022/11/20 06:04:41;;;;;;;;;;;22.80;68.70;;;;;;1603835;72;773;-71
2022/11/20 06:06:43;;;;;;;;;;;22.70;68.90;;;;;;1609660;72;1576;-72
2022/11/20 06:08:45;;;;;;;;;;;22.80;69.00;;;;;;1592892;72;1923;-73
2022/11/20 06:10:47;;;;;;;;;;;22.80;69.00;;;;;;1605953;72;626;-71
2022/11/20 06:12:49;;;;;;;;;;;22.70;69.10;;;;;;1596693;72;1169;-70
2022/11/20 06:14:51;;;;;;;;;;;22.70;69.00;;;;;;1602552;73;721;-71
2022/11/20 06:16:52;;;;;;;;;;;22.70;69.00;;;;;;1592358;72;704;-70
2022/11/20 06:18:54;;;;;;;;;;;22.70;69.10;;;;;;1614363;72;791;-72
2022/11/20 06:21:00;;;;;;;;;;;22.70;69.20;;;;;;1604343;72;1720;-73
2022/11/20 06:23:02;;;;;;;;;;;22.70;69.20;;;;;;1598298;72;1201;-72
2022/11/20 06:25:04;;;;;;;;;;;22.70;69.00;;;;;;1602979;72;728;-72
2022/11/20 06:27:06;;;;;;;;;;;22.70;68.90;;;;;;1606295;74;762;-73
2022/11/20 06:29:08;;;;;;;;;;;22.70;68.90;;;;;;1606022;72;1932;-72
2022/11/20 06:31:11;;;;;;;;;;;22.80;68.90;;;;;;1602982;74;649;-67
2022/11/20 06:33:12;;;;;;;;;;;22.70;69.20;;;;;;1607388;72;1599;-64
2022/11/20 06:35:14;;;;;;;;;;;22.70;69.00;;;;;;1596150;72;529;-67
2022/11/20 06:37:16;;;;;;;;;;;22.70;68.90;;;;;;1596814;74;744;-67
2022/11/20 06:39:18;;;;;;;;;;;22.70;68.80;;;;;;1605335;72;746;-65
2022/11/20 06:41:20;;;;;;;;;;;22.70;69.00;;;;;;1604789;74;676;-68
2022/11/20 06:43:22;;;;;;;;;;;22.70;69.00;;;;;;1606201;73;1160;-68
2022/11/20 06:45:24;;;;;;;;;;;22.80;68.90;;;;;;1614978;72;608;-68
2022/11/20 06:47:26;;;;;;;;;;;22.70;69.10;;;;;;1609026;72;1565;-68
2022/11/20 06:49:28;;;;;;;;;;;22.80;69.00;;;;;;1588373;72;1938;-69
2022/11/20 06:51:30;;;;;;;;;;;22.70;69.00;;;;;;1595607;74;725;-67
2022/11/20 06:53:32;;;;;;;;;;;22.70;69.20;;;;;;1606289;72;1128;-68
2022/11/20 06:55:34;;;;;;;;;;;22.70;69.40;;;;;;1604908;72;664;-69
2022/11/20 06:57:36;;;;;;;;;;;22.70;69.60;;;;;;1602925;73;730;-68
2022/11/20 06:59:37;;;;;;;;;;;22.80;69.50;;;;;;1602165;74;783;-69
2022/11/20 07:01:39;;;;;;;;;;;22.70;69.50;;;;;;1606050;72;1581;-68
2022/11/20 07:03:41;;;;;;;;;;;22.80;69.40;;;;;;1591387;74;1120;-69
2022/11/20 07:05:44;;;;;;;;;;;22.70;69.30;;;;;;1607167;72;732;-68
2022/11/20 07:07:46;;;;;;;;;;;22.70;69.40;;;;;;1595049;74;711;-67
2022/11/20 07:09:48;;;;;;;;;;;22.80;69.30;;;;;;1597749;74;1949;-67
2022/11/20 07:11:50;;;;;;;;;;;22.70;68.90;;;;;;1600388;72;734;-67
2022/11/20 07:13:52;;;;;;;;;;;22.80;68.90;;;;;;1603596;72;3049;-61
2022/11/20 07:15:54;;;;;;;;;;;22.70;69.00;;;;;;1583043;74;1476;-64
2022/11/20 07:17:56;;;;;;;;;;;22.80;69.10;;;;;;1576216;74;681;-61
2022/11/20 07:19:58;;;;;;;;;;;22.70;69.10;;;;;;1577000;74;736;-63
2022/11/20 07:21:59;;;;;;;;;;;22.90;69.20;;;;;;1584241;74;713;-64
2022/11/20 07:24:01;;;;;;;;;;;22.90;69.20;;;;;;1584885;73;1205;-63
2022/11/20 07:26:05;;;;;;;;;;;22.90;69.30;;;;;;1580500;74;730;-63
2022/11/20 07:28:07;;;;;;;;;;;22.90;69.30;;;;;;1575225;74;1058;-63
2022/11/20 07:30:09;;;;;;;;;;;22.90;69.30;;;;;;1574509;74;1949;-65
2022/11/20 07:32:11;;;;;;;;;;;22.80;69.20;;;;;;1576585;74;696;-64
2022/11/20 07:34:13;;;;;;;;;;;22.80;69.20;;;;;;1592036;74;1149;-65
2022/11/20 07:36:15;;;;;;;;;;;22.90;69.10;;;;;;1575722;74;656;-63
2022/11/20 07:38:16;;;;;;;;;;;22.90;68.90;;;;;;1580811;74;611;-63
2022/11/20 07:40:19;;;;;;;;;;;22.90;68.60;;;;;;1580360;73;707;-63
2022/11/20 07:42:21;;;;;;;;;;;22.90;68.40;;;;;;1570591;74;733;-63
2022/11/20 07:44:23;;;;;;;;;;;22.90;68.30;;;;;;1578209;74;1485;-63
2022/11/20 07:46:25;;;;;;;;;;;22.80;68.00;;;;;;1582443;74;677;-64
2022/11/20 07:48:27;;;;;;;;;;;22.90;68.00;;;;;;1580893;74;611;-62
2022/11/20 07:50:29;;;;;;;;;;;22.90;67.90;;;;;;1579007;74;1947;-63
2022/11/20 07:52:30;;;;;;;;;;;22.80;67.80;;;;;;1582869;74;1132;-63
2022/11/20 07:54:32;;;;;;;;;;;22.80;67.60;;;;;;1585665;74;623;-63
2022/11/20 07:56:34;;;;;;;;;;;22.80;67.50;;;;;;1579557;74;532;-63
2022/11/20 07:58:36;;;;;;;;;;;22.90;67.50;;;;;;1569296;74;1495;-64
2022/11/20 08:00:38;;;;;;;;;;;22.90;67.50;;;;;;1579272;74;748;-65
2022/11/20 08:02:40;;;;;;;;;;;22.70;67.50;;;;;;1585941;73;1134;-63
2022/11/20 08:04:42;;;;;;;;;;;22.80;67.60;;;;;;1584873;74;669;-63
2022/11/20 08:06:44;;;;;;;;;;;22.80;67.80;;;;;;1577085;74;710;-63
2022/11/20 08:08:46;;;;;;;;;;;22.80;67.90;;;;;;1586510;74;1931;-64
2022/11/20 08:10:48;;;;;;;;;;;22.80;68.00;;;;;;1585836;74;664;-64
2022/11/20 08:15:10;;;;;;;;;;;22.70;68.20;;;;;;1569487;74;1619;-64
2022/11/20 08:17:12;;;;;;;;;;;22.70;68.20;;;;;;1584477;74;758;-64
2022/11/20 08:19:14;;;;;;;;;;;22.90;68.40;;;;;;1580629;74;626;-63
2022/11/20 08:21:16;;;;;;;;;;;22.70;68.30;;;;;;1577548;74;700;-64
2022/11/20 08:23:18;;;;;;;;;;;22.80;68.40;;;;;;1580615;74;1173;-64
2022/11/20 08:25:20;;;;;;;;;;;22.80;68.40;;;;;;1581598;74;658;-63
2022/11/20 08:27:22;;;;;;;;;;;22.80;68.40;;;;;;1574086;74;1683;-63
2022/11/20 08:29:23;;;;;;;;;;;22.80;68.40;;;;;;1573739;74;2240;-63
2022/11/20 08:31:26;;;;;;;;;;;22.80;68.50;;;;;;1583680;74;707;-64
2022/11/20 08:33:28;;;;;;;;;;;22.80;68.60;;;;;;1588697;73;1200;-64
2022/11/20 08:35:31;;;;;;;;;;;22.90;68.60;;;;;;1581825;74;652;-64
2022/11/20 08:37:33;;;;;;;;;;;22.80;68.50;;;;;;1578226;74;1162;-65
2022/11/20 08:39:35;;;;;;;;;;;22.90;68.60;;;;;;1580628;74;712;-64
2022/11/20 08:41:37;;;;;;;;;;;22.80;68.50;;;;;;1578792;74;668;-63
2022/11/20 08:43:38;;;;;;;;;;;22.80;68.50;;;;;;1581052;74;1095;-64
2022/11/20 08:45:40;;;;;;;;;;;22.80;68.40;;;;;;1595748;74;1056;-64
2022/11/20 08:47:43;;;;;;;;;;;22.80;68.60;;;;;;1593144;74;640;-64
2022/11/20 08:49:44;;;;;;;;;;;22.90;68.70;;;;;;1583884;74;1936;-63
2022/11/20 08:51:51;;;;;;;;;;;22.90;68.60;;;;;;1577452;74;670;-64
2022/11/20 08:53:50;;;;;;;;;;;22.90;68.70;;;;;;1570376;74;1434;-64
2022/11/20 08:55:52;;;;;;;;;;;22.80;68.60;;;;;;1573717;74;779;-64
2022/11/20 08:57:54;;;;;;;;;;;22.90;68.80;;;;;;1573210;74;677;-65
2022/11/20 08:59:56;;;;;;;;;;;22.80;68.60;;;;;;1576876;74;708;-65
2022/11/20 09:01:58;;;;;;;;;;;22.90;68.80;;;;;;1578696;74;816;-64
2022/11/20 09:04:00;;;;;;;;;;;22.90;68.70;;;;;;1575491;74;1135;-64
2022/11/20 09:06:03;;;;;;;;;;;22.80;68.40;;;;;;1578710;74;736;-64
2022/11/20 09:08:05;;;;;;;;;;;22.90;68.70;;;;;;1576951;74;1608;-64
2022/11/20 09:10:09;;;;;;;;;;;22.80;68.50;;;;;;1587088;74;1940;-64
2022/11/20 09:12:11;;;;;;;;;;;22.90;68.50;;;;;;1583309;74;1314;-64
2022/11/20 09:14:13;;;;;;;;;;;22.90;68.60;;;;;;1597051;73;1172;-63
2022/11/20 09:16:15;;;;;;;;;;;22.90;68.70;;;;;;1589878;74;654;-64
2022/11/20 09:18:17;;;;;;;;;;;22.90;68.50;;;;;;1587773;74;576;-63
2022/11/20 09:20:18;;;;;;;;;;;22.90;68.50;;;;;;1576914;74;703;-63
2022/11/20 09:22:20;;;;;;;;;;;22.90;68.50;;;;;;1589925;74;1485;-62
2022/11/20 09:24:22;;;;;;;;;;;22.90;68.50;;;;;;1578278;74;1182;-63
2022/11/20 09:26:24;;;;;;;;;;;22.90;68.50;;;;;;1591367;74;711;-63
2022/11/20 09:28:26;;;;;;;;;;;22.80;68.30;;;;;;1582330;74;688;-64
2022/11/20 09:30:28;;;;;;;;;;;22.90;68.30;;;;;;1575791;74;1929;-63
2022/11/20 09:32:30;;;;;;;;;;;22.90;68.20;;;;;;1576718;74;1148;-65
2022/11/20 09:34:32;;;;;;;;;;;22.90;68.10;;;;;;1587019;74;666;-64
2022/11/20 09:36:34;;;;;;;;;;;22.90;68.20;;;;;;1573853;74;1508;-64
2022/11/20 09:38:36;;;;;;;;;;;22.80;68.10;;;;;;1576589;74;572;-64
2022/11/20 09:40:39;;;;;;;;;;;22.90;68.00;;;;;;1577204;74;679;-65
2022/11/20 09:42:42;;;;;;;;;;;22.90;67.90;;;;;;1576397;74;1126;-64
2022/11/20 09:44:45;;;;;;;;;;;22.90;67.80;;;;;;1596905;74;575;-63
2022/11/20 09:47:04;;;;;;;;;;;22.80;67.40;;;;;;1576548;74;721;-64
2022/11/20 09:49:07;;;;;;;;;;;22.90;67.40;;;;;;1578616;74;875;-64
2022/11/20 09:51:27;;;;;;;;;;;22.90;67.20;;;;;;1577494;74;1935;-64
2022/11/20 09:53:36;;;;;;;;;;;22.90;67.10;;;;;;1585614;74;1148;-64
2022/11/20 09:55:39;;;;;;;;;;;22.80;66.90;;;;;;1589977;74;1879;-64
2022/11/20 09:57:41;;;;;;;;;;;22.80;66.70;;;;;;1586830;74;679;-63
2022/11/20 09:59:44;;;;;;;;;;;22.80;66.70;;;;;;1574332;74;732;-64
2022/11/20 10:01:45;;;;;;;;;;;22.80;66.60;;;;;;1574899;74;701;-64
2022/11/20 10:03:55;;;;;;;;;;;22.80;66.60;;;;;;1592219;73;1134;-63
2022/11/20 10:05:57;;;;;;;;;;;22.80;66.50;;;;;;1575738;74;1153;-64
2022/11/20 10:08:09;;;;;;;;;;;22.80;66.40;;;;;;1579836;74;679;-65
2022/11/20 10:10:16;;;;;;;;;;;22.70;66.40;;;;;;1591995;74;1904;-64
2022/11/20 10:12:28;;;;;;;;;;;22.70;66.40;;;;;;1578002;72;1778;-64
2022/11/20 10:14:37;;;;;;;;;;;22.80;66.40;;;;;;1590378;74;1486;-65
2022/11/20 10:16:57;;;;;;;;;;;22.70;66.30;;;;;;1577098;74;661;-65
2022/11/20 10:19:04;;;;;;;;;;;22.70;66.30;;;;;;1579694;74;1579;-65
2022/11/20 10:21:10;;;;;;;;;;;22.70;66.20;;;;;;1577676;74;667;-65
2022/11/20 10:23:14;;;;;;;;;;;22.70;66.20;;;;;;1579397;74;1156;-65
2022/11/20 10:25:22;;;;;;;;;;;22.70;66.20;;;;;;1575849;74;1565;-64
2022/11/20 10:27:43;;;;;;;;;;;22.70;66.20;;;;;;1577464;74;675;-64
2022/11/20 10:29:46;;;;;;;;;;;22.70;66.10;;;;;;1579415;74;1918;-64
2022/11/20 10:31:52;;;;;;;;;;;22.70;66.10;;;;;;1576681;74;619;-64
2022/11/20 10:33:54;;;;;;;;;;;22.60;66.10;;;;;;1572600;74;1573;-64
2022/11/20 10:36:10;;;;;;;;;;;22.70;66.10;;;;;;1574504;74;768;-66
2022/11/20 10:38:13;;;;;;;;;;;22.60;66.10;;;;;;1583842;74;700;-65
2022/11/20 10:40:22;;;;;;;;;;;22.70;66.20;;;;;;1578536;74;1712;-65
2022/11/20 10:42:44;;;;;;;;;;;22.70;66.40;;;;;;1576805;74;691;-64
2022/11/20 10:45:02;;;;;;;;;;;22.70;66.50;;;;;;1585505;74;1694;-64
2022/11/20 10:47:05;;;;;;;;;;;22.60;66.40;;;;;;1561232;74;1402;-65
2022/11/20 10:49:16;;;;;;;;;;;22.70;66.40;;;;;;1571798;74;647;-65
2022/11/20 10:51:38;;;;;;;;;;;22.70;66.40;;;;;;1576027;74;1905;-65
2022/11/20 10:53:48;;;;;;;;;;;22.70;66.30;;;;;;1558547;76;1271;-66
2022/11/20 10:55:57;;;;;;;;;;;22.70;66.10;;;;;;1553496;76;778;-65
2022/11/20 10:58:03;;;;;;;;;;;22.90;66.10;;;;;;1552590;76;1882;-65
2022/11/20 11:00:06;;;;;;;;;;;22.80;65.60;;;;;;1569682;74;898;-65
2022/11/20 11:02:15;;;;;;;;;;;22.90;65.40;;;;;;1583885;74;1610;-65
2022/11/20 11:04:35;;;;;;;;;;;23.00;65.20;;;;;;1590049;73;1035;-64
2022/11/20 11:06:38;;;;;;;;;;;23.00;65.00;;;;;;1583212;74;645;-64
2022/11/20 11:08:40;;;;;;;;;;;23.10;64.80;;;;;;1575189;74;642;-64
2022/11/20 11:10:50;;;;;;;;;;;23.10;64.60;;;;;;1581880;74;1912;-64
2022/11/20 11:12:52;;;;;;;;;;;23.10;64.70;;;;;;1572107;74;1192;-65
2022/11/20 11:14:54;;;;;;;;;;;23.10;64.50;;;;;;1562530;74;1483;-65
2022/11/20 11:16:57;;;;;;;;;;;23.10;64.50;;;;;;1587957;74;604;-65
2022/11/20 11:19:06;;;;;;;;;;;23.20;64.30;;;;;;1583686;74;713;-71
2022/11/20 11:21:09;;;;;;;;;;;23.10;64.30;;;;;;1577111;74;994;-66
2022/11/20 11:23:12;;;;;;;;;;;23.10;64.80;;;;;;1583021;74;1189;-65
2022/11/20 11:25:21;;;;;;;;;;;23.00;65.20;;;;;;1582610;74;1730;-64
2022/11/20 11:27:23;;;;;;;;;;;23.00;65.60;;;;;;1580557;74;692;-65
2022/11/20 11:29:29;;;;;;;;;;;23.00;65.60;;;;;;1569783;74;1428;-64
2022/11/20 11:31:29;;;;;;;;;;;22.90;65.90;;;;;;1575689;74;1941;-64
2022/11/20 11:33:33;;;;;;;;;;;22.90;66.20;;;;;;1576814;74;1092;-64
2022/11/20 11:35:37;;;;;;;;;;;22.80;66.20;;;;;;1576205;74;723;-64
2022/11/20 11:37:39;;;;;;;;;;;22.90;66.40;;;;;;1574193;74;1846;-63
2022/11/20 11:39:41;;;;;;;;;;;22.80;66.60;;;;;;1572953;74;712;-66
2022/11/20 11:41:43;;;;;;;;;;;22.80;66.70;;;;;;1587515;74;710;-64
2022/11/20 11:46:23;;;;;;;;;;;22.80;66.80;;;;;;1584446;74;1660;-61
2022/11/20 11:48:25;;;;;;;;;;;22.80;66.90;;;;;;1577959;74;643;-64
2022/11/20 11:50:27;;;;;;;;;;;22.70;67.10;;;;;;1586726;74;1936;-64
2022/11/20 11:52:29;;;;;;;;;;;22.70;67.20;;;;;;1588821;74;1108;-63
2022/11/20 11:54:33;;;;;;;;;;;22.80;67.30;;;;;;1590508;74;743;-64
2022/11/20 11:56:34;;;;;;;;;;;22.70;67.20;;;;;;1579464;74;1451;-64
2022/11/20 11:58:44;;;;;;;;;;;22.70;67.30;;;;;;1577287;74;748;-64
2022/11/20 12:00:53;;;;;;;;;;;22.70;67.40;;;;;;1588471;74;688;-64
2022/11/20 12:03:00;;;;;;;;;;;22.60;67.30;;;;;;1572378;74;1142;-63
2022/11/20 12:05:06;;;;;;;;;;;22.70;67.50;;;;;;1583703;74;1967;-64
2022/11/20 12:07:16;;;;;;;;;;;22.60;67.50;;;;;;1577758;74;1324;-64
2022/11/20 12:09:18;;;;;;;;;;;22.70;67.60;;;;;;1581166;74;1607;-64
2022/11/20 12:11:34;;;;;;;;;;;22.70;67.60;;;;;;1587127;74;1918;-64
2022/11/20 12:13:44;;;;;;;;;;;22.60;67.60;;;;;;1584806;74;1176;-65
2022/11/20 12:15:46;;;;;;;;;;;22.60;67.70;;;;;;1589509;73;699;-65
2022/11/20 12:17:48;;;;;;;;;;;22.70;67.80;;;;;;1581956;74;693;-64
2022/11/20 12:19:50;;;;;;;;;;;22.60;67.80;;;;;;1587181;74;669;-63
2022/11/20 12:21:56;;;;;;;;;;;22.60;67.70;;;;;;1578840;74;686;-65